createdAt,value
2022-08-30T00:00:41.141Z,27.85
2022-08-30T00:03:44.120Z,29.00
2022-08-30T00:06:34.076Z,28.17
2022-08-30T00:09:24.524Z,29.52
2022-08-30T00:12:14.496Z,29.52
2022-08-30T00:15:05.462Z,26.17
2022-08-30T00:17:55.705Z,26.90
2022-08-30T00:20:45.514Z,31.23
2022-08-30T00:23:36.005Z,28.20
2022-08-30T00:26:25.545Z,32.10
2022-08-30T00:29:15.389Z,30.98
2022-08-30T00:32:05.934Z,32.05
2022-08-30T00:34:56.704Z,33.55
2022-08-30T00:37:46.205Z,36.92
2022-08-30T00:40:36.050Z,36.13
2022-08-30T00:43:28.895Z,37.80
2022-08-30T00:46:21.163Z,38.17
2022-08-30T00:49:11.739Z,36.40
2022-08-30T00:52:02.264Z,35.67
2022-08-30T00:54:53.363Z,37.70
2022-08-30T00:57:45.773Z,34.63
2022-08-30T01:00:37.304Z,30.77
2022-08-30T01:03:27.654Z,35.63
2022-08-30T01:06:19.173Z,32.53
2022-08-30T01:09:11.491Z,33.13
2022-08-30T01:12:00.909Z,34.08
2022-08-30T01:14:51.896Z,26.48
2022-08-30T01:17:46.528Z,26.80
2022-08-30T01:20:43.216Z,28.08
2022-08-30T01:23:34.086Z,24.42
2022-08-30T01:26:24.415Z,23.95
2022-08-30T01:29:20.167Z,20.85
2022-08-30T01:32:11.420Z,23.35
2022-08-30T01:35:00.811Z,55.63
2022-08-30T01:37:52.168Z,21.42
2022-08-30T01:40:42.430Z,18.63
2022-08-30T01:43:32.290Z,18.60
2022-08-30T01:46:25.732Z,21.63
2022-08-30T01:49:27.416Z,15.75
2022-08-30T01:52:18.918Z,19.48
2022-08-30T01:55:09.435Z,15.13
2022-08-30T01:58:02.257Z,16.30
2022-08-30T02:00:52.657Z,19.90
2022-08-30T02:03:44.984Z,16.88
2022-08-30T02:06:35.226Z,18.27
2022-08-30T02:09:24.726Z,16.30
2022-08-30T02:12:14.338Z,17.45
2022-08-30T02:15:04.158Z,23.30
2022-08-30T02:17:54.468Z,21.15
2022-08-30T02:20:44.311Z,22.58
2022-08-30T02:23:34.222Z,19.48
2022-08-30T02:26:25.067Z,19.85
2022-08-30T02:29:15.166Z,21.75
2022-08-30T02:32:05.182Z,29.05
2022-08-30T02:34:56.230Z,21.92
2022-08-30T02:37:46.297Z,16.80
2022-08-30T02:40:36.305Z,19.17
2022-08-30T02:43:29.377Z,20.00
2022-08-30T02:46:20.297Z,20.75
2022-08-30T02:49:32.691Z,19.27
2022-08-30T02:52:26.586Z,25.42
2022-08-30T02:55:19.746Z,21.17
2022-08-30T02:58:09.624Z,20.80
2022-08-30T03:00:59.469Z,26.55
2022-08-30T03:03:50.840Z,26.15
2022-08-30T03:06:40.986Z,23.58
2022-08-30T03:09:31.044Z,25.75
2022-08-30T03:12:22.422Z,28.45
2022-08-30T03:15:14.658Z,31.30
2022-08-30T03:18:10.334Z,40.45
2022-08-30T03:21:00.647Z,30.70
2022-08-30T03:23:50.142Z,33.53
2022-08-30T03:26:46.204Z,31.27
2022-08-30T03:29:36.638Z,32.70
2022-08-30T03:32:27.075Z,33.47
2022-08-30T03:35:18.759Z,45.85
2022-08-30T03:38:08.624Z,34.22
2022-08-30T03:41:02.342Z,34.88
2022-08-30T03:43:52.249Z,35.92
2022-08-30T03:46:49.738Z,41.40
2022-08-30T03:49:39.666Z,41.22
2022-08-30T03:52:29.923Z,35.47
2022-08-30T03:55:19.656Z,38.78
2022-08-30T03:58:09.980Z,37.38
2022-08-30T04:01:00.625Z,39.60
2022-08-30T04:03:50.504Z,43.40
2022-08-30T04:06:40.773Z,43.92
2022-08-30T04:09:30.348Z,42.75
2022-08-30T04:12:22.940Z,41.47
2022-08-30T04:15:16.865Z,37.17
2022-08-30T04:18:06.536Z,41.95
2022-08-30T04:20:56.882Z,45.58
2022-08-30T04:23:49.533Z,41.60
2022-08-30T04:26:40.223Z,42.75
2022-08-30T04:29:32.830Z,48.17
2022-08-30T04:32:22.830Z,40.72
2022-08-30T04:35:14.417Z,46.53
2022-08-30T04:38:05.240Z,42.22
2022-08-30T04:40:56.693Z,46.45
2022-08-30T04:43:52.681Z,50.78
2022-08-30T04:46:44.676Z,53.58
2022-08-30T04:49:37.714Z,45.97
2022-08-30T04:52:27.558Z,51.90
2022-08-30T04:55:20.243Z,48.28
2022-08-30T04:58:09.785Z,45.15
2022-08-30T05:00:59.566Z,47.10
2022-08-30T05:03:50.799Z,47.78
2022-08-30T05:06:40.699Z,41.15
2022-08-30T05:09:30.434Z,47.22
2022-08-30T05:12:20.074Z,42.38
2022-08-30T05:15:13.455Z,41.83
2022-08-30T05:18:04.033Z,49.08
2022-08-30T05:21:15.754Z,41.72
2022-08-30T05:24:05.714Z,40.40
2022-08-30T05:26:55.757Z,36.17
2022-08-30T05:29:47.236Z,38.08
2022-08-30T05:32:37.337Z,41.80
2022-08-30T05:35:28.427Z,32.55
2022-08-30T05:38:18.933Z,31.02
2022-08-30T05:41:11.039Z,31.63
2022-08-30T05:44:02.422Z,29.25
2022-08-30T05:46:55.107Z,32.47
2022-08-30T05:49:44.690Z,34.72
2022-08-30T05:52:45.284Z,34.33
2022-08-30T05:55:37.480Z,33.63
2022-08-30T05:58:28.101Z,30.10
2022-08-30T06:01:21.997Z,37.13
2022-08-30T06:04:13.359Z,33.22
2022-08-30T06:07:02.882Z,29.20
2022-08-30T06:09:52.529Z,27.77
2022-08-30T06:12:42.830Z,35.53
2022-08-30T06:15:32.402Z,31.00
2022-08-30T06:18:28.729Z,33.47
2022-08-30T06:21:27.591Z,26.92
2022-08-30T06:24:17.341Z,27.60
2022-08-30T06:27:07.626Z,30.70
2022-08-30T06:29:57.649Z,23.90
2022-08-30T06:32:48.068Z,25.33
2022-08-30T06:35:52.152Z,27.60
2022-08-30T06:38:48.584Z,26.85
2022-08-30T06:41:42.035Z,31.30
2022-08-30T06:44:52.356Z,35.47
2022-08-30T06:47:42.344Z,32.85
2022-08-30T06:50:35.145Z,38.28
2022-08-30T06:53:30.896Z,38.75
2022-08-30T06:56:25.188Z,31.35
2022-08-30T06:59:15.064Z,29.50
2022-08-30T07:02:04.998Z,34.10
2022-08-30T07:04:54.536Z,37.15
2022-08-30T07:07:44.730Z,27.88
2022-08-30T07:10:34.294Z,30.23
2022-08-30T07:13:28.162Z,27.92
2022-08-30T07:16:18.743Z,26.02
2022-08-30T07:19:19.412Z,30.48
2022-08-30T07:22:11.112Z,30.88
2022-08-30T07:25:00.771Z,32.38
2022-08-30T07:27:53.400Z,32.92
2022-08-30T07:30:43.591Z,33.55
2022-08-30T07:33:34.182Z,33.17
2022-08-30T07:36:24.886Z,32.15
2022-08-30T07:39:14.431Z,29.10
2022-08-30T07:42:04.818Z,31.23
2022-08-30T07:44:56.792Z,30.25
2022-08-30T07:47:47.947Z,32.83
2022-08-30T07:50:38.033Z,32.63
2022-08-30T07:53:28.171Z,24.85
2022-08-30T07:56:17.789Z,25.33
2022-08-30T07:59:07.721Z,30.00
2022-08-30T08:01:57.818Z,31.05
2022-08-30T08:04:48.381Z,24.40
2022-08-30T08:07:39.372Z,26.98
2022-08-30T08:10:28.823Z,27.05
2022-08-30T08:13:19.283Z,29.67
2022-08-30T08:16:12.023Z,27.95
2022-08-30T08:19:02.160Z,17.25
2022-08-30T08:22:15.657Z,28.30
2022-08-30T08:25:06.587Z,21.30
2022-08-30T08:27:57.605Z,18.67
2022-08-30T08:30:48.482Z,17.40
2022-08-30T08:33:38.032Z,17.13
2022-08-30T08:36:28.859Z,13.48
2022-08-30T08:39:20.972Z,15.27
2022-08-30T08:42:55.954Z,11.43
2022-08-30T08:46:26.911Z,12.57
2022-08-30T08:49:17.800Z,14.13
2022-08-30T08:52:28.105Z,9.68
2022-08-30T08:55:20.900Z,11.70
2022-08-30T08:58:21.831Z,15.18
2022-08-30T09:01:13.974Z,17.65
2022-08-30T09:04:32.463Z,33.80
2022-08-30T09:07:41.981Z,16.48
2022-08-30T09:10:49.862Z,12.95
2022-08-30T09:13:40.548Z,10.32
2022-08-30T09:17:04.704Z,13.63
2022-08-30T09:19:58.440Z,11.70
2022-08-30T09:22:47.766Z,9.25
2022-08-30T09:25:41.885Z,9.07
2022-08-30T09:28:35.723Z,17.15
2022-08-30T09:31:35.038Z,12.57
2022-08-30T09:34:25.428Z,20.38
2022-08-30T09:37:38.181Z,13.98
2022-08-30T09:40:36.056Z,16.23
2022-08-30T09:43:31.225Z,21.65
2022-08-30T09:46:26.479Z,29.38
2022-08-30T09:49:33.791Z,17.38
2022-08-30T09:52:35.938Z,18.45
2022-08-30T09:55:40.892Z,17.55
2022-08-30T09:59:07.607Z,21.00
2022-08-30T10:02:20.300Z,19.83
2022-08-30T10:05:45.100Z,32.22
2022-08-30T10:08:50.953Z,27.05
2022-08-30T10:12:06.293Z,26.05
2022-08-30T10:15:01.646Z,33.70
2022-08-30T10:18:19.387Z,29.25
2022-08-30T10:21:26.888Z,30.92
2022-08-30T10:24:22.352Z,31.20
2022-08-30T10:27:28.989Z,30.75
2022-08-30T10:30:20.049Z,32.92
2022-08-30T10:33:26.342Z,30.08
2022-08-30T10:36:35.118Z,31.33
2022-08-30T10:39:30.880Z,38.33
2022-08-30T10:42:26.048Z,34.53
2022-08-30T10:45:18.593Z,25.23
2022-08-30T10:48:23.406Z,30.95
2022-08-30T10:51:25.149Z,26.38
2022-08-30T10:54:33.958Z,31.00
2022-08-30T10:57:24.195Z,30.63
2022-08-30T11:00:18.817Z,56.78
2022-08-30T11:03:26.634Z,89.13
2022-08-30T11:06:53.839Z,34.08
2022-08-30T11:10:13.608Z,37.00
2022-08-30T11:13:16.853Z,23.88
2022-08-30T11:16:16.584Z,20.20
2022-08-30T11:19:20.634Z,22.85
2022-08-30T11:22:29.750Z,16.52
2022-08-30T11:25:57.606Z,20.10
2022-08-30T11:28:49.698Z,44.22
2022-08-30T11:31:44.709Z,24.85
2022-08-30T11:34:49.883Z,23.45
2022-08-30T11:37:44.826Z,20.42
2022-08-30T11:40:47.284Z,23.98
2022-08-30T11:43:38.089Z,48.72
2022-08-30T11:46:33.742Z,23.30
2022-08-30T11:49:47.525Z,23.52
2022-08-30T11:53:12.692Z,27.48
2022-08-30T11:56:25.708Z,36.13
2022-08-30T11:59:33.429Z,51.95
2022-08-30T12:02:46.948Z,87.70
2022-08-30T12:05:40.097Z,32.15
2022-08-30T12:08:36.341Z,54.22
2022-08-30T12:11:36.703Z,66.38
2022-08-30T12:14:42.597Z,130.15
2022-08-30T12:18:15.279Z,124.75
2022-08-30T12:21:19.700Z,35.88
2022-08-30T12:24:22.781Z,58.10
2022-08-30T12:27:39.497Z,58.03
2022-08-30T12:30:30.658Z,88.75
2022-08-30T12:33:40.356Z,85.35
2022-08-30T12:36:41.965Z,80.72
2022-08-30T12:39:38.197Z,70.28
2022-08-30T12:42:30.610Z,51.78
2022-08-30T12:45:22.899Z,63.78
2022-08-30T12:48:17.102Z,59.35
2022-08-30T12:51:08.545Z,30.13
2022-08-30T12:54:08.583Z,33.30
2022-08-30T12:57:19.540Z,21.38
2022-08-30T13:00:38.284Z,21.38
2022-08-30T13:03:33.821Z,16.35
2022-08-30T13:06:51.841Z,13.13
2022-08-30T13:09:45.402Z,11.15
2022-08-30T13:12:37.294Z,11.93
2022-08-30T13:15:34.019Z,13.43
2022-08-30T13:18:29.569Z,9.30
2022-08-30T13:21:25.201Z,8.40
2022-08-30T13:24:16.106Z,9.65
2022-08-30T13:27:13.202Z,8.23
2022-08-30T13:30:13.538Z,9.00
2022-08-30T13:33:03.977Z,7.55
2022-08-30T13:35:55.282Z,6.95
2022-08-30T13:38:44.985Z,8.18
2022-08-30T13:41:34.757Z,7.95
2022-08-30T13:44:24.512Z,8.68
2022-08-30T13:47:32.834Z,10.20
2022-08-30T13:50:23.095Z,8.25
2022-08-30T13:53:13.272Z,7.93
2022-08-30T13:56:03.570Z,9.93
2022-08-30T13:58:53.586Z,9.27
2022-08-30T14:04:54.418Z,8.05
2022-08-30T14:07:45.266Z,10.55
2022-08-30T14:10:46.508Z,9.68
2022-08-30T14:13:37.429Z,9.60
2022-08-30T14:16:27.729Z,9.50
2022-08-30T14:19:18.726Z,10.38
2022-08-30T14:22:08.953Z,9.80
2022-08-30T14:24:59.018Z,9.52
2022-08-30T14:27:49.846Z,8.80
2022-08-30T14:30:40.443Z,11.07
2022-08-30T14:33:32.166Z,6.53
2022-08-30T14:36:22.164Z,8.30
2022-08-30T14:39:16.441Z,11.45
2022-08-30T14:42:07.530Z,7.20
2022-08-30T14:44:59.652Z,8.90
2022-08-30T14:47:49.283Z,12.10
2022-08-30T14:50:39.727Z,9.25
2022-08-30T14:53:29.508Z,10.32
2022-08-30T14:56:22.097Z,13.10
2022-08-30T14:59:12.540Z,7.80
2022-08-30T15:02:03.251Z,9.02
2022-08-30T15:04:53.512Z,10.45
2022-08-30T15:07:43.213Z,9.20
2022-08-30T15:10:34.056Z,11.50
2022-08-30T15:13:23.487Z,8.07
2022-08-30T15:16:19.478Z,13.32
2022-08-30T15:19:14.016Z,16.85
2022-08-30T15:22:06.874Z,13.50
2022-08-30T15:24:57.898Z,13.38
2022-08-30T15:27:49.190Z,9.32
2022-08-30T15:30:38.777Z,10.13
2022-08-30T15:33:30.045Z,9.10
2022-08-30T15:36:20.399Z,10.25
2022-08-30T15:39:10.728Z,8.82
2022-08-30T15:42:01.559Z,12.73
2022-08-30T15:44:57.319Z,11.90
2022-08-30T15:47:47.377Z,13.35
2022-08-30T15:50:38.413Z,12.88
2022-08-30T15:53:30.310Z,16.58
2022-08-30T15:56:20.005Z,13.18
2022-08-30T15:59:09.978Z,11.00
2022-08-30T16:02:00.563Z,15.77
2022-08-30T16:04:50.468Z,10.75
2022-08-30T16:07:42.116Z,15.38
2022-08-30T16:10:32.753Z,11.43
2022-08-30T16:13:23.230Z,12.23
2022-08-30T16:16:13.816Z,11.02
2022-08-30T16:19:07.431Z,14.70
2022-08-30T16:21:56.848Z,11.38
2022-08-30T16:24:46.829Z,17.42
2022-08-30T16:27:36.479Z,11.73
2022-08-30T16:30:26.120Z,10.82
2022-08-30T16:33:15.739Z,11.13
2022-08-30T16:36:06.673Z,12.30
2022-08-30T16:38:58.399Z,12.77
2022-08-30T16:41:48.392Z,10.88
2022-08-30T16:44:38.278Z,10.93
2022-08-30T16:47:28.163Z,12.52
2022-08-30T16:50:22.863Z,13.07
2022-08-30T16:53:16.571Z,18.17
2022-08-30T16:56:14.859Z,15.18
2022-08-30T16:59:10.345Z,12.68
2022-08-30T17:02:01.512Z,13.70
2022-08-30T17:04:53.281Z,13.50
2022-08-30T17:07:44.784Z,12.02
2022-08-30T17:10:35.317Z,14.27
2022-08-30T17:13:24.607Z,12.90
2022-08-30T17:16:16.322Z,16.52
2022-08-30T17:19:13.093Z,16.58
2022-08-30T17:22:03.335Z,11.48
2022-08-30T17:24:53.725Z,14.18
2022-08-30T17:27:43.540Z,11.95
2022-08-30T17:30:35.134Z,14.45
2022-08-30T17:33:24.967Z,14.20
2022-08-30T17:36:15.083Z,13.50
2022-08-30T17:39:10.388Z,17.95
2022-08-30T17:42:01.214Z,17.85
2022-08-30T17:44:51.012Z,17.27
2022-08-30T17:47:41.070Z,15.00
2022-08-30T17:50:33.443Z,16.42
2022-08-30T17:53:22.801Z,18.33
2022-08-30T17:56:15.862Z,16.92
2022-08-30T17:59:12.045Z,16.80
2022-08-30T18:02:03.316Z,21.45
2022-08-30T18:04:54.785Z,16.88
2022-08-30T18:07:44.680Z,17.02
2022-08-30T18:10:34.001Z,20.60
2022-08-30T18:13:24.176Z,21.65
2022-08-30T18:16:14.300Z,23.17
2022-08-30T18:19:10.999Z,27.02
2022-08-30T18:22:03.226Z,20.77
2022-08-30T18:24:52.818Z,24.67
2022-08-30T18:27:42.190Z,20.55
2022-08-30T18:30:41.530Z,18.67
2022-08-30T18:33:32.534Z,20.50
2022-08-30T18:36:23.767Z,21.95
2022-08-30T18:39:15.879Z,20.33
2022-08-30T18:42:08.206Z,22.95
2022-08-30T18:44:59.213Z,20.20
2022-08-30T18:47:57.947Z,22.65
2022-08-30T18:50:48.834Z,18.10
2022-08-30T18:53:38.727Z,22.75
2022-08-30T18:56:31.736Z,21.65
2022-08-30T18:59:22.674Z,36.50
2022-08-30T19:02:27.434Z,23.10
2022-08-30T19:05:36.542Z,22.85
2022-08-30T19:08:26.875Z,17.17
2022-08-30T19:11:18.237Z,18.10
2022-08-30T19:14:08.907Z,21.27
2022-08-30T19:17:06.074Z,19.25
2022-08-30T19:19:56.515Z,22.77
2022-08-30T19:23:08.736Z,24.00
2022-08-30T19:25:57.209Z,29.40
2022-08-30T19:28:47.533Z,19.73
2022-08-30T19:31:37.994Z,24.17
2022-08-30T19:34:31.526Z,23.75
2022-08-30T19:37:21.913Z,20.45
2022-08-30T19:40:18.386Z,18.42
2022-08-30T19:43:11.013Z,20.55
2022-08-30T19:46:01.576Z,20.60
2022-08-30T19:48:50.978Z,20.67
2022-08-30T19:51:46.761Z,22.52
2022-08-30T19:54:50.357Z,23.05
2022-08-30T19:57:40.959Z,19.58
2022-08-30T20:00:33.190Z,23.02
2022-08-30T20:03:25.746Z,19.08
2022-08-30T20:06:17.551Z,23.20
2022-08-30T20:09:10.510Z,15.13
2022-08-30T20:12:03.347Z,13.90
2022-08-30T20:14:54.664Z,18.40
2022-08-30T20:20:59.975Z,16.52
2022-08-30T20:23:52.078Z,15.30
2022-08-30T20:26:41.905Z,14.43
2022-08-30T20:29:34.574Z,15.93
2022-08-30T20:32:26.000Z,18.33
2022-08-30T20:35:17.683Z,14.60
2022-08-30T20:38:10.188Z,14.18
2022-08-30T20:41:02.454Z,15.80
2022-08-30T20:43:53.930Z,15.23
2022-08-30T20:46:54.936Z,15.48
2022-08-30T20:49:45.147Z,17.02
2022-08-30T20:52:35.201Z,18.30
2022-08-30T20:55:24.828Z,17.25
2022-08-30T20:58:15.410Z,20.08
2022-08-30T21:01:05.340Z,21.42
2022-08-30T21:03:55.894Z,19.33
2022-08-30T21:06:45.684Z,18.73
2022-08-30T21:09:35.467Z,17.73
2022-08-30T21:12:26.847Z,16.48
2022-08-30T21:15:36.245Z,20.05
2022-08-30T21:18:30.893Z,19.20
2022-08-30T21:21:23.536Z,16.48
2022-08-30T21:24:13.716Z,22.70
2022-08-30T21:27:04.039Z,17.35
2022-08-30T21:29:55.695Z,18.08
2022-08-30T21:32:45.601Z,20.98
2022-08-30T21:35:54.612Z,18.60
2022-08-30T21:38:45.111Z,20.65
2022-08-30T21:41:36.290Z,20.98
2022-08-30T21:44:28.176Z,25.73
2022-08-30T21:47:23.163Z,19.67
2022-08-30T21:50:13.660Z,22.83
2022-08-30T21:53:07.362Z,22.70
2022-08-30T21:55:57.630Z,24.05
2022-08-30T21:58:48.495Z,20.45
2022-08-30T22:01:40.246Z,22.00
2022-08-30T22:04:30.850Z,20.42
2022-08-30T22:07:20.103Z,21.48
2022-08-30T22:10:12.153Z,18.80
2022-08-30T22:13:02.075Z,17.85
2022-08-30T22:15:53.314Z,19.23
2022-08-30T22:18:44.155Z,17.65
2022-08-30T22:21:35.997Z,17.20
2022-08-30T22:24:25.782Z,18.33
2022-08-30T22:27:17.594Z,19.45
2022-08-30T22:30:07.266Z,23.90
2022-08-30T22:32:57.447Z,20.95
2022-08-30T22:35:48.400Z,24.20
2022-08-30T22:38:38.423Z,25.67
2022-08-30T22:41:30.566Z,23.45
2022-08-30T22:44:21.290Z,21.08
2022-08-30T22:47:13.327Z,20.40
2022-08-30T22:50:03.284Z,23.10
2022-08-30T22:52:52.733Z,32.88
2022-08-30T22:55:42.786Z,23.98
2022-08-30T22:58:32.690Z,29.58
2022-08-30T23:01:26.927Z,24.20
2022-08-30T23:04:17.058Z,27.10
2022-08-30T23:07:06.905Z,32.13
2022-08-30T23:09:58.955Z,30.88
2022-08-30T23:12:48.353Z,31.20
2022-08-30T23:15:38.120Z,36.72
2022-08-30T23:18:28.554Z,32.90
2022-08-30T23:21:20.059Z,32.75
2022-08-30T23:24:27.850Z,36.78
2022-08-30T23:27:36.838Z,29.25
2022-08-30T23:30:46.249Z,27.98
2022-08-30T23:33:54.555Z,26.38
2022-08-30T23:37:02.454Z,30.35
2022-08-30T23:40:10.102Z,32.60
2022-08-30T23:43:17.749Z,36.15
2022-08-30T23:46:25.917Z,25.95
2022-08-30T23:49:33.757Z,26.77
2022-08-30T23:52:42.064Z,33.95
2022-08-30T23:55:50.291Z,27.77
2022-08-30T23:58:58.013Z,27.48
